Time,TemperatureF,DewpointF,PressureIn,WindDirection,WindDirectionDegrees,WindSpeedMPH,WindSpeedGustMPH,Humidity,HourlyPrecipIn,Conditions,Clouds,dailyrainin,SoftwareType,DateUTC
2013-03-24 00:00:00,37.4,22.3,29.95,NW,314,5.0,6.0,54,0.00,CLR,,0.00,WeatherDisplay:10.37,2013-03-24 04:00:00,
2013-03-24 00:15:00,37.0,21.9,29.99,NW,318,5.0,6.0,54,0.00,CLR,,0.00,WeatherDisplay:10.37,2013-03-24 04:15:00,
2013-03-24 00:30:00,37.0,21.9,29.95,NW,318,5.0,7.0,54,0.00,CLR,,0.00,WeatherDisplay:10.37,2013-03-24 04:30:00,
2013-03-24 00:45:00,37.0,21.9,29.95,NW,311,3.0,7.0,54,0.00,CLR,,0.00,WeatherDisplay:10.37,2013-03-24 04:45:00,
2013-03-24 01:00:00,36.7,21.6,29.95,NW,321,3.0,6.0,54,0.00,CLR,,0.00,WeatherDisplay:10.37,2013-03-24 05:00:00,
2013-03-24 01:15:00,36.3,21.2,29.99,NW,319,3.0,6.0,54,0.00,CLR,,0.00,WeatherDisplay:10.37,2013-03-24 05:15:00,
2013-03-24 01:30:00,36.3,21.2,29.99,NNW,335,3.0,5.0,54,0.00,CLR,,0.00,WeatherDisplay:10.37,2013-03-24 05:30:00,
2013-03-24 01:45:00,36.0,20.9,29.95,NNW,329,3.0,6.0,54,0.00,CLR,,0.00,WeatherDisplay:10.37,2013-03-24 05:45:00,
2013-03-24 02:00:00,35.4,21.3,29.95,NW,315,3.0,7.0,56,0.00,CLR,,0.00,WeatherDisplay:10.37,2013-03-24 06:00:00,
2013-03-24 02:15:00,35.1,20.9,29.95,NNW,330,2.0,5.0,56,0.00,CLR,,0.00,WeatherDisplay:10.37,2013-03-24 06:15:00,
2013-03-24 02:30:00,35.1,21.3,29.95,NNW,342,2.0,5.0,57,0.00,CLR,,0.00,WeatherDisplay:10.37,2013-03-24 06:30:00,
2013-03-24 02:45:00,36.0,21.8,29.95,NNW,338,2.0,7.0,56,0.00,CLR,,0.00,WeatherDisplay:10.37,2013-03-24 06:45:00,
2013-03-24 03:00:00,35.6,21.0,29.95,NNW,337,5.0,7.0,55,0.00,CLR,,0.00,WeatherDisplay:10.37,2013-03-24 07:00:00,
2013-03-24 03:15:00,35.6,20.6,29.95,NNW,330,3.0,6.0,54,0.00,CLR,,0.00,WeatherDisplay:10.37,2013-03-24 07:15:00,
2013-03-24 03:30:00,35.6,20.6,29.95,NNW,339,5.0,8.0,54,0.00,CLR,,0.00,WeatherDisplay:10.37,2013-03-24 07:30:00,
2013-03-24 03:45:00,35.1,20.1,29.95,NNW,340,3.0,8.0,54,0.00,CLR,,0.00,WeatherDisplay:10.37,2013-03-24 07:45:00,
2013-03-24 04:00:00,34.9,20.3,29.95,North,352,2.0,5.0,55,0.00,CLR,,0.00,WeatherDisplay:10.37,2013-03-24 08:00:00,
2013-03-24 04:15:00,33.8,18.9,29.95,NNW,342,1.0,5.0,54,0.00,CLR,,0.00,WeatherDisplay:10.37,2013-03-24 08:15:00,
2013-03-24 04:30:00,33.3,20.1,29.99,North,2,1.0,4.0,58,0.00,CLR,,0.00,WeatherDisplay:10.37,2013-03-24 08:30:00,
2013-03-24 04:45:00,30.7,19.6,29.99,NNE,15,0.0,0.0,63,0.00,CLR,,0.00,WeatherDisplay:10.37,2013-03-24 08:45:00,
2013-03-24 05:00:00,29.7,19.3,29.99,NNE,15,0.0,0.0,65,0.00,CLR,,0.00,WeatherDisplay:10.37,2013-03-24 09:00:00,
2013-03-24 05:15:00,28.4,19.2,29.99,NNE,15,0.0,0.0,68,0.00,CLR,,0.00,WeatherDisplay:10.37,2013-03-24 09:15:00,
2013-03-24 05:30:00,27.3,18.8,29.99,NNE,15,0.0,0.0,70,0.00,CLR,,0.00,WeatherDisplay:10.37,2013-03-24 09:30:00,
2013-03-24 05:45:00,26.2,17.8,29.99,NNE,15,0.0,0.0,70,0.00,CLR,,0.00,WeatherDisplay:10.37,2013-03-24 09:45:00,
2013-03-24 06:00:00,26.4,18.6,29.99,NNE,15,0.0,0.0,72,0.00,CLR,,0.00,WeatherDisplay:10.37,2013-03-24 10:00:00,
2013-03-24 06:15:00,26.4,19.3,29.99,NNE,15,0.0,0.0,74,0.00,CLR,,0.00,WeatherDisplay:10.37,2013-03-24 10:15:00,
2013-03-24 06:30:00,26.1,18.6,29.95,NNE,15,0.0,0.0,73,0.00,CLR,,0.00,WeatherDisplay:10.37,2013-03-24 10:30:00,
2013-03-24 06:45:00,25.7,18.6,29.95,NNE,15,0.0,0.0,74,0.00,CLR,,0.00,WeatherDisplay:10.37,2013-03-24 10:45:00,
2013-03-24 07:00:00,25.9,19.0,29.99,NNE,15,0.0,0.0,75,0.00,CLR,,0.00,WeatherDisplay:10.37,2013-03-24 11:00:00,
2013-03-24 07:15:00,26.4,19.9,29.95,NNE,15,0.0,0.0,76,0.00,CLR,,0.00,WeatherDisplay:10.37,2013-03-24 11:15:00,
2013-03-24 07:30:00,27.0,20.4,29.95,NNE,15,0.0,0.0,76,0.00,CLR,,0.00,WeatherDisplay:10.37,2013-03-24 11:30:00,
2013-03-24 07:45:00,28.4,22.1,29.95,NNE,15,0.0,0.0,77,0.00,CLR,,0.00,WeatherDisplay:10.37,2013-03-24 11:45:00,
2013-03-24 08:00:00,30.6,23.9,29.99,NNE,15,0.0,0.0,76,0.00,CLR,,0.00,WeatherDisplay:10.37,2013-03-24 12:00:00,
2013-03-24 08:15:00,33.6,26.2,29.99,NNE,15,0.0,0.0,74,0.00,CLR,,0.00,WeatherDisplay:10.37,2013-03-24 12:15:00,
2013-03-24 08:30:00,34.5,25.7,29.99,NNE,15,0.0,0.0,70,0.00,CLR,,0.00,WeatherDisplay:10.37,2013-03-24 12:30:00,
2013-03-24 08:45:00,38.3,22.6,29.99,NNW,331,2.0,7.0,53,0.00,CLR,,0.00,WeatherDisplay:10.37,2013-03-24 12:45:00,
2013-03-24 09:00:00,39.0,21.5,29.99,NW,317,3.0,5.0,49,0.00,CLR,,0.00,WeatherDisplay:10.37,2013-03-24 13:00:00,
2013-03-24 09:15:00,40.1,20.4,29.99,NNW,339,3.0,6.0,45,0.00,CLR,,0.00,WeatherDisplay:10.37,2013-03-24 13:15:00,
2013-03-24 09:30:00,40.3,20.1,29.95,NNW,344,3.0,6.0,44,0.00,CLR,,0.00,WeatherDisplay:10.37,2013-03-24 13:30:00,
2013-03-24 09:45:00,41.2,18.1,29.95,North,356,3.0,6.0,39,0.00,CLR,,0.00,WeatherDisplay:10.37,2013-03-24 13:45:00,
2013-03-24 10:00:00,42.4,19.2,29.93,NNW,342,3.0,7.0,39,0.00,CLR,,0.00,WeatherDisplay:10.37,2013-03-24 14:00:00,
2013-03-24 10:15:00,42.3,19.0,29.93,NNW,339,5.0,10.0,39,0.00,CLR,,0.00,WeatherDisplay:10.37,2013-03-24 14:15:00,
2013-03-24 10:30:00,43.3,20.0,29.93,NNW,344,7.0,9.0,39,0.00,CLR,,0.00,WeatherDisplay:10.37,2013-03-24 14:30:00,
2013-03-24 10:45:00,42.1,18.9,29.93,NNW,329,7.0,10.0,39,0.00,CLR,,0.00,WeatherDisplay:10.37,2013-03-24 14:45:00,
2013-03-24 11:00:00,44.2,20.8,29.93,North,11,7.0,10.0,39,0.00,CLR,,0.00,WeatherDisplay:10.37,2013-03-24 15:00:00,
2013-03-24 11:15:00,44.1,20.7,29.93,NW,320,6.0,8.0,39,0.00,CLR,,0.00,WeatherDisplay:10.37,2013-03-24 15:15:00,
2013-03-24 11:30:00,44.8,21.3,29.90,NNW,344,7.0,8.0,39,0.00,CLR,,0.00,WeatherDisplay:10.37,2013-03-24 15:30:00,
2013-03-24 11:45:00,45.7,22.1,29.90,NNW,335,7.0,9.0,39,0.00,CLR,,0.00,WeatherDisplay:10.37,2013-03-24 15:45:00,
2013-03-24 12:00:00,45.3,21.8,29.90,NNW,332,6.0,8.0,39,0.00,CLR,,0.00,WeatherDisplay:10.37,2013-03-24 16:00:00,
2013-03-24 12:15:00,45.5,21.9,29.90,NW,307,6.0,8.0,39,0.00,CLR,,0.00,WeatherDisplay:10.37,2013-03-24 16:15:00,
2013-03-24 12:30:00,45.7,22.1,29.90,NNW,332,7.0,8.0,39,0.00,CLR,,0.00,WeatherDisplay:10.37,2013-03-24 16:30:00,
2013-03-24 12:45:00,45.7,22.1,29.87,NW,309,6.0,7.0,39,0.00,CLR,,0.00,WeatherDisplay:10.37,2013-03-24 16:45:00,
2013-03-24 13:00:00,45.7,22.1,29.87,WNW,302,6.0,8.0,39,0.00,CLR,,0.00,WeatherDisplay:10.37,2013-03-24 17:00:00,
2013-03-24 13:15:00,47.5,23.7,29.87,WNW,296,6.0,7.0,39,0.00,CLR,,0.00,WeatherDisplay:10.37,2013-03-24 17:15:00,
2013-03-24 13:30:00,46.2,22.6,29.84,NW,307,5.0,5.0,39,0.00,CLR,,0.00,WeatherDisplay:10.37,2013-03-24 17:30:00,
2013-03-24 13:45:00,47.8,24.0,29.84,NW,310,3.0,5.0,39,0.00,CLR,,0.00,WeatherDisplay:10.37,2013-03-24 17:45:00,
2013-03-24 14:00:00,48.6,24.7,29.81,ENE,76,1.0,4.0,39,0.00,CLR,,0.00,WeatherDisplay:10.37,2013-03-24 18:00:00,
2013-03-24 14:15:00,46.6,22.9,29.81,South,174,2.0,8.0,39,0.00,CLR,,0.00,WeatherDisplay:10.37,2013-03-24 18:15:00,
2013-03-24 14:30:00,45.9,22.3,29.78,South,175,5.0,8.0,39,0.00,CLR,,0.00,WeatherDisplay:10.37,2013-03-24 18:30:00,
2013-03-24 14:45:00,45.1,21.6,29.78,SE,143,3.0,5.0,39,0.00,CLR,,0.00,WeatherDisplay:10.37,2013-03-24 18:45:00,
2013-03-24 15:00:00,43.7,20.3,29.78,ESE,121,3.0,7.0,39,0.00,CLR,,0.00,WeatherDisplay:10.37,2013-03-24 19:00:00,
2013-03-24 15:15:00,44.1,20.7,29.78,SSE,160,3.0,5.0,39,0.00,CLR,,0.00,WeatherDisplay:10.37,2013-03-24 19:15:00,
2013-03-24 15:30:00,43.7,20.3,29.75,SSW,193,3.0,6.0,39,0.00,CLR,,0.00,WeatherDisplay:10.37,2013-03-24 19:30:00,
2013-03-24 15:45:00,42.8,19.5,29.75,ESE,109,2.0,7.0,39,0.00,CLR,,0.00,WeatherDisplay:10.37,2013-03-24 19:45:00,
2013-03-24 16:00:00,43.7,20.3,29.75,SE,125,3.0,5.0,39,0.00,CLR,,0.00,WeatherDisplay:10.37,2013-03-24 20:00:00,
2013-03-24 16:15:00,43.0,19.7,29.72,SSE,148,3.0,6.0,39,0.00,CLR,,0.00,WeatherDisplay:10.37,2013-03-24 20:15:00,
2013-03-24 16:30:00,42.6,19.4,29.72,SE,146,3.0,6.0,39,0.00,CLR,,0.00,WeatherDisplay:10.37,2013-03-24 20:30:00,
2013-03-24 16:45:00,41.7,18.5,29.72,East,99,3.0,7.0,39,0.00,SCT,,0.00,WeatherDisplay:10.37,2013-03-24 20:45:00,
2013-03-24 17:00:00,41.0,17.9,29.72,ENE,71,2.0,5.0,39,0.00,SCT,,0.00,WeatherDisplay:10.37,2013-03-24 21:00:00,
2013-03-24 17:15:00,40.6,18.2,29.72,ESE,123,2.0,5.0,40,0.00,BKN,,0.00,WeatherDisplay:10.37,2013-03-24 21:15:00,
2013-03-24 17:30:00,39.9,19.7,29.72,NE,53,2.0,5.0,44,0.00,SCT,,0.00,WeatherDisplay:10.37,2013-03-24 21:30:00,
2013-03-24 17:45:00,39.9,19.7,29.72,East,91,1.0,4.0,44,0.00,SCT,,0.00,WeatherDisplay:10.37,2013-03-24 21:45:00,
2013-03-24 18:00:00,39.4,19.8,29.72,NE,51,2.0,4.0,45,0.00,BKN,,0.00,WeatherDisplay:10.37,2013-03-24 22:00:00,
2013-03-24 18:15:00,38.8,20.3,29.72,NE,54,2.0,4.0,47,0.00,BKN,,0.00,WeatherDisplay:10.37,2013-03-24 22:15:00,
2013-03-24 18:30:00,38.7,20.1,29.75,East,92,1.0,1.0,47,0.00,BKN,,0.00,WeatherDisplay:10.37,2013-03-24 22:30:00,
2013-03-24 18:45:00,38.5,21.0,29.75,SE,127,0.0,1.0,49,0.00,BKN,,0.00,WeatherDisplay:10.37,2013-03-24 22:45:00,
2013-03-24 19:00:00,38.3,20.8,29.75,East,92,1.0,3.0,49,0.00,OVC,,0.00,WeatherDisplay:10.37,2013-03-24 23:00:00,
2013-03-24 19:15:00,38.1,21.1,29.78,SE,130,0.0,0.0,50,0.00,OVC,,0.00,WeatherDisplay:10.37,2013-03-24 23:15:00,
2013-03-24 19:30:00,37.9,20.9,29.78,SE,125,0.0,0.0,50,0.00,OVC,,0.00,WeatherDisplay:10.37,2013-03-24 23:30:00,
2013-03-24 19:45:00,37.9,21.9,29.75,SE,125,0.0,0.0,52,0.00,OVC,,0.00,WeatherDisplay:10.37,2013-03-24 23:45:00,
2013-03-24 20:00:00,37.9,21.9,29.75,SE,127,0.0,1.0,52,0.00,OVC,,0.00,WeatherDisplay:10.37,2013-03-25 00:00:00,
2013-03-24 20:15:00,37.9,22.3,29.78,ESE,120,0.0,1.0,53,0.00,OVC,,0.00,WeatherDisplay:10.37,2013-03-25 00:15:00,
2013-03-24 20:30:00,37.9,22.3,29.75,ESE,120,0.0,0.0,53,0.00,OVC,,0.00,WeatherDisplay:10.37,2013-03-25 00:30:00,
2013-03-24 20:45:00,37.8,22.1,29.75,SE,125,0.0,0.0,53,0.00,OVC,,0.00,WeatherDisplay:10.37,2013-03-25 00:45:00,
2013-03-24 21:00:00,37.6,22.4,29.75,SE,125,0.0,0.0,54,0.00,OVC,,0.00,WeatherDisplay:10.37,2013-03-25 01:00:00,
2013-03-24 21:15:00,37.8,22.6,29.75,SE,125,0.0,0.0,54,0.00,OVC,,0.00,WeatherDisplay:10.37,2013-03-25 01:15:00,
2013-03-24 21:30:00,37.9,22.8,29.75,SE,125,0.0,0.0,54,0.00,OVC,,0.00,WeatherDisplay:10.37,2013-03-25 01:30:00,
2013-03-24 21:45:00,37.8,23.0,29.72,NNE,30,0.0,0.0,55,0.00,OVC,,0.00,WeatherDisplay:10.37,2013-03-25 01:45:00,
2013-03-24 22:00:00,37.9,23.2,29.72,NNE,30,0.0,0.0,55,0.00,OVC,,0.00,WeatherDisplay:10.37,2013-03-25 02:00:00,
2013-03-24 22:15:00,37.8,23.0,29.72,NE,54,1.0,2.0,55,0.00,OVC,,0.00,WeatherDisplay:10.37,2013-03-25 02:15:00,
2013-03-24 22:30:00,37.8,23.5,29.72,NE,38,1.0,2.0,56,0.00,OVC,,0.00,WeatherDisplay:10.37,2013-03-25 02:30:00,
2013-03-24 22:45:00,37.8,23.0,29.72,NE,39,1.0,4.0,55,0.00,OVC,,0.00,WeatherDisplay:10.37,2013-03-25 02:45:00,
2013-03-24 23:00:00,37.9,23.6,29.69,NE,53,2.0,4.0,56,0.00,OVC,,0.00,WeatherDisplay:10.37,2013-03-25 03:00:00,
2013-03-24 23:15:00,38.1,24.6,29.66,NE,49,5.0,7.0,58,0.00,OVC,,0.00,WeatherDisplay:10.37,2013-03-25 03:15:00,
2013-03-24 23:30:00,38.3,24.8,29.66,NE,50,8.0,10.0,58,0.00,OVC,,0.00,WeatherDisplay:10.37,2013-03-25 03:30:00,
2013-03-24 23:45:00,38.3,24.8,29.69,ENE,67,5.0,9.0,58,0.00,OVC,,0.00,WeatherDisplay:10.37,2013-03-25 03:45:00,